Time;durP1;ratioP1;P1;durP2;ratioP2;P2;SDS_P1;SDS_P2;PMS_P1;PMS_P2;Temp;Humidity;BMP_temperature;BMP_pressure;BME280_temperature;BME280_humidity;BME280_pressure;Samples;Min_cycle;Max_cycle;Signal;HPM_P1;HPM_P2
2022/10/05 00:01:43;;;;;;;5.53;3.33;;;11.40;99.90;;;;;;5026510;28;23179;-80
2022/10/05 00:04:17;;;;;;;6.63;3.47;;;11.40;99.90;;;;;;5017979;28;20622;-77
2022/10/05 00:07:07;;;;;;;5.63;3.97;;;11.40;99.90;;;;;;5028250;28;20202;-78
2022/10/05 00:09:33;;;;;;;3.57;2.83;;;11.30;99.90;;;;;;5017330;28;20754;-78
2022/10/05 00:12:14;;;;;;;5.70;3.53;;;11.30;99.90;;;;;;5022020;28;20210;-78
2022/10/05 00:14:40;;;;;;;5.00;3.70;;;11.30;99.90;;;;;;5023763;28;20189;-78
2022/10/05 00:17:06;;;;;;;4.83;3.87;;;11.30;99.90;;;;;;5025252;28;20210;-78
2022/10/05 00:19:34;;;;;;;6.30;3.20;;;11.20;99.90;;;;;;5028325;28;20193;-78
2022/10/05 00:22:08;;;;;;;4.07;3.60;;;11.20;99.90;;;;;;5017166;28;20665;-78
2022/10/05 00:24:33;;;;;;;8.43;3.77;;;11.20;99.90;;;;;;5019382;28;20216;-78
2022/10/05 00:27:11;;;;;;;4.27;3.83;;;11.20;99.90;;;;;;5021705;28;20257;-77
2022/10/05 00:29:37;;;;;;;4.17;3.60;;;11.10;99.90;;;;;;5023830;28;20267;-78
2022/10/05 00:32:03;;;;;;;3.83;3.47;;;11.10;99.90;;;;;;5025807;28;20267;-77
2022/10/05 00:34:31;;;;;;;5.40;3.60;;;11.10;99.90;;;;;;5023649;28;20172;-81
2022/10/05 00:36:57;;;;;;;5.37;3.57;;;11.10;99.90;;;;;;5027175;28;20222;-78
2022/10/05 00:39:22;;;;;;;6.20;3.33;;;11.10;99.90;;;;;;5026412;28;20199;-78
2022/10/05 00:41:57;;;;;;;6.10;3.87;;;11.10;99.90;;;;;;5028004;28;20203;-79
2022/10/05 00:44:51;;;;;;;4.20;3.77;;;11.10;99.90;;;;;;5025459;28;20189;-78
2022/10/05 00:47:35;;;;;;;5.47;3.60;;;11.00;99.90;;;;;;5014396;28;20701;-78
2022/10/05 00:50:09;;;;;;;4.73;4.30;;;11.00;99.90;;;;;;5026494;28;20663;-78
2022/10/05 00:52:53;;;;;;;9.03;3.20;;;11.00;99.90;;;;;;5021107;28;20230;-78
2022/10/05 00:55:48;;;;;;;3.67;3.30;;;11.00;99.90;;;;;;5017753;28;20192;-78
2022/10/05 00:58:28;;;;;;;6.80;3.87;;;11.00;99.90;;;;;;5018412;28;20206;-77
2022/10/05 01:01:12;;;;;;;6.47;4.10;;;11.00;99.90;;;;;;5022011;28;20196;-77
2022/10/05 01:03:46;;;;;;;4.43;3.57;;;11.00;99.90;;;;;;5014245;28;20764;-77
2022/10/05 01:06:29;;;;;;;4.30;3.60;;;11.00;99.90;;;;;;5024095;28;20225;-78
2022/10/05 01:09:13;;;;;;;4.83;3.60;;;11.00;99.90;;;;;;5017388;28;20697;-78
2022/10/05 01:11:44;;;;;;;6.03;3.77;;;11.00;99.90;;;;;;5025683;28;20221;-78
2022/10/05 01:14:24;;;;;;;4.43;4.00;;;11.00;99.90;;;;;;5028057;28;20220;-80
2022/10/05 01:16:58;;;;;;;4.37;3.33;;;11.00;99.90;;;;;;5019360;28;20205;-80
2022/10/05 01:19:56;;;;;;;7.43;4.30;;;11.00;99.90;;;;;;5034631;28;20639;-80
2022/10/05 01:22:47;;;;;;;4.40;3.90;;;11.00;99.90;;;;;;5025798;28;20215;-87
2022/10/05 01:25:27;;;;;;;8.63;4.20;;;11.00;99.90;;;;;;5044325;28;20180;-78
2022/10/05 01:28:01;;;;;;;4.47;4.03;;;11.00;99.90;;;;;;5028484;28;20252;-78
2022/10/05 01:30:35;;;;;;;7.90;3.93;;;10.90;99.90;;;;;;5033175;28;20213;-74
2022/10/05 01:33:14;;;;;;;4.87;4.23;;;10.90;99.90;;;;;;5016442;28;20675;-73
2022/10/05 01:36:08;;;;;;;4.50;4.10;;;10.90;99.90;;;;;;5023697;28;20690;-74
2022/10/05 01:38:43;;;;;;;4.70;3.63;;;10.90;99.90;;;;;;5024562;28;20697;-73
2022/10/05 01:41:08;;;;;;;4.07;3.37;;;10.90;99.90;;;;;;5015573;28;20200;-74
2022/10/05 01:44:04;;;;;;;6.17;4.17;;;10.80;99.90;;;;;;5026512;28;20213;-73
2022/10/05 01:46:48;;;;;;;6.27;4.10;;;10.80;99.90;;;;;;5008188;28;20207;-74
2022/10/05 01:49:33;;;;;;;6.73;3.97;;;10.80;99.90;;;;;;5024102;28;20197;-74
2022/10/05 01:52:11;;;;;;;3.73;3.40;;;10.80;99.90;;;;;;5032133;28;20244;-74
2022/10/05 01:55:04;;;;;;;6.70;3.90;;;10.70;99.90;;;;;;5027140;28;20194;-73
2022/10/05 01:57:50;;;;;;;9.20;3.87;;;10.70;99.90;;;;;;5019517;28;20572;-73
2022/10/05 02:00:17;;;;;;;5.77;3.50;;;10.60;99.90;;;;;;5026756;28;20195;-73
2022/10/05 02:03:10;;;;;;;6.97;3.77;;;10.60;99.90;;;;;;5028372;28;20217;-75
2022/10/05 02:06:07;;;;;;;6.17;3.27;;;10.60;99.90;;;;;;5023365;28;20246;-74
2022/10/05 02:08:42;;;;;;;7.03;3.90;;;10.60;99.90;;;;;;5018640;28;20206;-73
2022/10/05 02:11:10;;;;;;;4.63;3.50;;;10.50;99.90;;;;;;5022503;28;20346;-73
2022/10/05 02:13:46;;;;;;;9.03;4.37;;;10.50;99.90;;;;;;5028424;28;20219;-73
2022/10/05 02:16:27;;;;;;;7.17;4.03;;;10.50;99.90;;;;;;5021583;28;20193;-74
2022/10/05 02:19:17;;;;;;;4.70;4.17;;;10.50;99.90;;;;;;5020811;28;20306;-71
2022/10/05 02:21:47;;;;;;;5.77;3.47;;;10.50;99.90;;;;;;5024001;28;20188;-73
2022/10/05 02:24:22;;;;;;;4.37;3.87;;;10.50;99.90;;;;;;5015499;28;20196;-73
2022/10/05 02:26:50;;;;;;;5.50;3.70;;;10.40;99.90;;;;;;5023030;28;20484;-74
2022/10/05 02:29:18;;;;;;;4.23;3.53;;;10.40;99.90;;;;;;5022759;28;20434;-73
2022/10/05 02:32:01;;;;;;;4.83;3.93;;;10.40;99.90;;;;;;5032851;28;20221;-74
2022/10/05 02:34:34;;;;;;;4.23;3.83;;;10.40;99.90;;;;;;5024737;28;20184;-74
2022/10/05 02:37:38;;;;;;;4.20;3.80;;;10.30;99.90;;;;;;5018485;28;20215;-74
2022/10/05 02:40:14;;;;;;;5.30;3.60;;;10.30;99.90;;;;;;5016329;28;20192;-73
2022/10/05 02:42:51;;;;;;;7.57;3.70;;;10.30;99.90;;;;;;5020314;28;20623;-74
2022/10/05 02:45:22;;;;;;;4.93;3.73;;;10.30;99.90;;;;;;5025045;28;20396;-73
2022/10/05 02:48:06;;;;;;;3.90;3.60;;;10.20;99.90;;;;;;5022703;28;20196;-75
2022/10/05 02:50:38;;;;;;;5.93;3.87;;;10.20;99.90;;;;;;5024919;28;20669;-74
2022/10/05 02:53:14;;;;;;;5.23;3.90;;;10.20;99.90;;;;;;5024160;28;20238;-74
2022/10/05 02:56:08;;;;;;;4.97;4.47;;;10.20;99.90;;;;;;5018515;28;20189;-73
2022/10/05 02:58:44;;;;;;;3.80;3.37;;;10.20;99.90;;;;;;5001888;28;20661;-73
2022/10/05 03:01:24;;;;;;;6.83;3.30;;;10.20;99.90;;;;;;5039258;28;20198;-79
2022/10/05 03:04:13;;;;;;;5.63;4.10;;;10.20;99.90;;;;;;5014746;28;20273;-74
2022/10/05 03:06:51;;;;;;;5.10;4.00;;;10.20;99.90;;;;;;5012821;28;20189;-72
2022/10/05 03:09:20;;;;;;;4.07;3.57;;;10.30;99.90;;;;;;5018688;28;20234;-74
2022/10/05 03:12:09;;;;;;;5.10;3.87;;;10.30;99.90;;;;;;5035202;28;20202;-74
2022/10/05 03:14:52;;;;;;;3.90;3.60;;;10.30;99.90;;;;;;5020300;28;20266;-73
2022/10/05 03:17:26;;;;;;;6.70;4.27;;;10.30;99.90;;;;;;5019492;28;20452;-73
2022/10/05 03:20:02;;;;;;;5.43;4.07;;;10.30;99.90;;;;;;5025341;28;20247;-74
2022/10/05 03:22:45;;;;;;;4.27;3.60;;;10.40;99.90;;;;;;5010146;28;20244;-73
2022/10/05 03:25:20;;;;;;;7.03;4.20;;;10.40;99.90;;;;;;5023317;28;20177;-73
2022/10/05 03:28:09;;;;;;;6.17;4.43;;;10.40;99.90;;;;;;5011333;28;20223;-73
2022/10/05 03:31:01;;;;;;;4.50;4.10;;;10.40;99.90;;;;;;5023740;28;20202;-72
2022/10/05 03:33:52;;;;;;;6.10;3.77;;;10.40;99.90;;;;;;5013653;28;20223;-72
2022/10/05 03:36:37;;;;;;;7.07;3.47;;;10.50;99.90;;;;;;5013675;28;20244;-72
2022/10/05 03:39:02;;;;;;;5.03;3.97;;;10.50;99.90;;;;;;5019623;28;20195;-72
2022/10/05 03:41:44;;;;;;;9.07;4.00;;;10.50;99.90;;;;;;5028692;28;20650;-73
2022/10/05 03:44:15;;;;;;;7.07;4.00;;;10.50;99.90;;;;;;5019063;28;20208;-72
2022/10/05 03:47:07;;;;;;;6.57;4.40;;;10.50;99.90;;;;;;5015992;28;20190;-72
2022/10/05 03:49:54;;;;;;;8.37;4.60;;;10.50;99.90;;;;;;5021817;28;20204;-72
2022/10/05 03:52:28;;;;;;;5.47;3.63;;;10.50;99.90;;;;;;5029470;28;20701;-72
2022/10/05 03:55:29;;;;;;;8.10;3.80;;;10.60;99.90;;;;;;5024283;28;20284;-75
2022/10/05 03:57:58;;;;;;;13.43;3.57;;;10.50;99.90;;;;;;5020464;28;20213;-74
2022/10/05 04:00:27;;;;;;;5.80;3.53;;;10.50;99.90;;;;;;5023858;28;20657;-72
2022/10/05 04:03:01;;;;;;;4.43;4.03;;;10.50;99.90;;;;;;5024537;28;20280;-72
2022/10/05 04:05:48;;;;;;;5.00;3.57;;;10.60;99.90;;;;;;5023498;28;20180;-73
2022/10/05 04:08:43;;;;;;;4.47;4.07;;;10.60;99.90;;;;;;5021237;28;20229;-74
2022/10/05 04:11:13;;;;;;;6.37;4.27;;;10.60;99.90;;;;;;5018918;28;20743;-74
2022/10/05 04:13:53;;;;;;;5.43;3.63;;;10.60;99.90;;;;;;5027600;28;20285;-74
2022/10/05 04:16:27;;;;;;;3.57;3.27;;;10.50;99.90;;;;;;5027436;28;20215;-74
2022/10/05 04:19:11;;;;;;;5.27;4.00;;;10.50;99.90;;;;;;5018939;28;20672;-71
2022/10/05 04:21:49;;;;;;;5.93;3.93;;;10.50;99.90;;;;;;5024654;28;20218;-71
2022/10/05 04:24:22;;;;;;;6.27;3.97;;;10.50;99.90;;;;;;5017150;28;20201;-71
2022/10/05 04:26:54;;;;;;;4.93;3.73;;;10.50;99.90;;;;;;5025339;28;20202;-72
2022/10/05 04:29:40;;;;;;;4.57;4.10;;;10.50;99.90;;;;;;5022351;28;20387;-71
2022/10/05 04:32:14;;;;;;;5.70;3.70;;;10.50;99.90;;;;;;5024415;28;20349;-72
2022/10/05 04:35:05;;;;;;;6.47;4.30;;;10.50;99.90;;;;;;5024852;28;20207;-71
2022/10/05 04:38:01;;;;;;;3.90;3.53;;;10.50;99.90;;;;;;5023526;28;20683;-71
2022/10/05 04:40:51;;;;;;;4.17;2.97;;;10.40;99.90;;;;;;5027049;28;20675;-74
2022/10/05 04:43:39;;;;;;;5.00;3.70;;;10.40;99.90;;;;;;5026505;28;20312;-72
2022/10/05 04:46:22;;;;;;;5.50;3.40;;;10.50;99.90;;;;;;5026374;28;20188;-73
2022/10/05 04:49:16;;;;;;;8.87;3.90;;;10.50;99.90;;;;;;5018143;28;20217;-73
2022/10/05 04:52:05;;;;;;;4.73;3.20;;;10.40;99.90;;;;;;5019142;28;20261;-73
2022/10/05 04:54:53;;;;;;;4.97;3.63;;;10.50;99.90;;;;;;5024653;28;20293;-72
2022/10/05 04:57:26;;;;;;;3.90;3.60;;;10.40;99.90;;;;;;5020312;28;20189;-73
2022/10/05 05:00:21;;;;;;;8.50;4.33;;;10.40;99.90;;;;;;5027041;28;20284;-73
2022/10/05 05:03:25;;;;;;;4.07;3.50;;;10.40;99.90;;;;;;5021532;28;20193;-73
2022/10/05 05:06:21;;;;;;;6.47;3.57;;;10.40;99.90;;;;;;5026519;28;20894;-73
2022/10/05 05:09:20;;;;;;;4.20;3.47;;;10.40;99.90;;;;;;5016173;28;20246;-73
2022/10/05 05:12:18;;;;;;;6.67;4.27;;;10.40;99.90;;;;;;5012813;28;20335;-74
2022/10/05 05:15:05;;;;;;;4.97;3.23;;;10.40;99.90;;;;;;5025673;28;20372;-73
2022/10/05 05:17:31;;;;;;;5.93;3.70;;;10.40;99.90;;;;;;5023682;28;20186;-73
2022/10/05 05:20:19;;;;;;;5.83;3.63;;;10.40;99.90;;;;;;5031215;28;20204;-73
2022/10/05 05:23:11;;;;;;;6.20;3.57;;;10.40;99.90;;;;;;5024951;28;20253;-76
2022/10/05 05:25:46;;;;;;;6.93;4.10;;;10.40;99.90;;;;;;5024366;28;20606;-72
2022/10/05 05:28:27;;;;;;;8.03;3.73;;;10.40;99.90;;;;;;5016431;28;20209;-72
2022/10/05 05:31:07;;;;;;;7.40;3.83;;;10.40;99.90;;;;;;5026158;28;20250;-74
2022/10/05 05:33:44;;;;;;;7.60;3.83;;;10.40;99.90;;;;;;5028826;28;20245;-73
2022/10/05 05:37:01;;;;;;;8.17;4.80;;;10.50;99.90;;;;;;5026242;28;20185;-73
2022/10/05 05:39:33;;;;;;;6.13;3.67;;;10.50;99.90;;;;;;5001675;28;21035;-74
2022/10/05 05:42:10;;;;;;;6.27;4.03;;;10.60;99.90;;;;;;4996749;28;20681;-74
2022/10/05 05:44:49;;;;;;;7.73;4.43;;;10.60;99.90;;;;;;5006651;28;20758;-74
2022/10/05 05:47:24;;;;;;;4.20;3.80;;;10.60;99.90;;;;;;5023745;28;20396;-74
2022/10/05 05:50:09;;;;;;;7.50;4.00;;;10.60;99.90;;;;;;5022498;28;20339;-74
2022/10/05 05:52:42;;;;;;;6.07;4.13;;;10.60;99.90;;;;;;5020828;28;20627;-73
2022/10/05 05:55:17;;;;;;;5.77;4.33;;;10.60;99.90;;;;;;5015343;28;20192;-74
2022/10/05 05:57:56;;;;;;;5.10;3.87;;;10.70;99.90;;;;;;5021956;28;20206;-74
2022/10/05 06:00:36;;;;;;;5.70;4.30;;;10.70;99.90;;;;;;5023689;28;20623;-74
2022/10/05 06:03:20;;;;;;;6.10;4.63;;;10.70;99.90;;;;;;5022754;28;20197;-74
2022/10/05 06:06:08;;;;;;;4.50;4.10;;;10.70;99.90;;;;;;5022158;28;20181;-74
2022/10/05 06:08:40;;;;;;;7.57;4.80;;;10.80;99.90;;;;;;5014372;28;20266;-72
2022/10/05 06:11:26;;;;;;;7.50;4.73;;;10.80;99.90;;;;;;5019669;28;20303;-74
2022/10/05 06:13:53;;;;;;;7.63;4.63;;;10.80;99.90;;;;;;5021020;28;20550;-78
2022/10/05 06:16:35;;;;;;;4.40;4.10;;;10.90;99.90;;;;;;5025336;28;20198;-73
2022/10/05 06:19:07;;;;;;;9.00;4.50;;;10.90;99.90;;;;;;5022417;28;20240;-77
2022/10/05 06:21:36;;;;;;;7.10;4.30;;;11.00;99.90;;;;;;5025363;28;20274;-78
2022/10/05 06:24:09;;;;;;;13.23;4.03;;;11.10;99.90;;;;;;5022247;28;20582;-75
2022/10/05 06:27:01;;;;;;;6.37;4.10;;;11.10;99.90;;;;;;5019619;28;20221;-75
2022/10/05 06:29:47;;;;;;;6.10;3.37;;;11.20;99.90;;;;;;5017134;28;20195;-75
2022/10/05 06:32:38;;;;;;;5.50;4.60;;;11.20;99.90;;;;;;5021819;28;20215;-76
2022/10/05 06:35:12;;;;;;;5.27;4.47;;;11.30;99.90;;;;;;5021214;28;20263;-74
2022/10/05 06:37:54;;;;;;;8.47;4.23;;;11.30;99.90;;;;;;5024446;28;20183;-74
2022/10/05 06:40:40;;;;;;;4.43;3.47;;;11.40;99.90;;;;;;5021455;28;20212;-74
2022/10/05 06:43:33;;;;;;;7.33;4.90;;;11.40;99.90;;;;;;5011957;28;20596;-74
2022/10/05 06:46:04;;;;;;;4.17;3.47;;;11.50;99.90;;;;;;5022932;28;20247;-75
2022/10/05 06:48:51;;;;;;;8.07;4.13;;;11.50;99.90;;;;;;5032188;28;20233;-74
2022/10/05 06:51:26;;;;;;;5.20;4.37;;;11.50;99.90;;;;;;5027372;28;20291;-74
2022/10/05 06:54:02;;;;;;;5.10;4.07;;;11.50;99.90;;;;;;5023169;28;20205;-74
2022/10/05 06:57:02;;;;;;;5.20;4.70;;;11.60;99.90;;;;;;5021586;28;20186;-74
2022/10/05 06:59:41;;;;;;;4.93;3.73;;;11.60;99.90;;;;;;5020826;28;20216;-74
2022/10/05 07:02:43;;;;;;;4.53;3.77;;;11.70;99.90;;;;;;5015486;28;20717;-71
2022/10/05 07:05:29;;;;;;;6.77;4.20;;;11.70;99.90;;;;;;5016393;28;20279;-72
2022/10/05 07:08:11;;;;;;;7.90;3.80;;;11.70;99.90;;;;;;5019831;28;20188;-68
2022/10/05 07:10:56;;;;;;;5.20;4.20;;;11.80;99.90;;;;;;5014763;28;20804;-69
2022/10/05 07:14:09;;;;;;;4.57;3.57;;;11.80;99.90;;;;;;5022173;28;20759;-69
2022/10/05 07:17:01;;;;;;;5.20;3.93;;;11.80;99.90;;;;;;4990954;28;20501;-68
2022/10/05 07:19:39;;;;;;;5.53;4.23;;;11.90;99.90;;;;;;5020847;28;20292;-67
2022/10/05 07:22:20;;;;;;;5.03;3.80;;;11.90;99.90;;;;;;5023318;28;20185;-67
2022/10/05 07:25:02;;;;;;;6.17;3.57;;;11.90;99.90;;;;;;5020344;28;20208;-67
2022/10/05 07:27:34;;;;;;;4.73;3.53;;;12.00;99.90;;;;;;5023321;28;20674;-68
2022/10/05 07:30:11;;;;;;;8.53;3.97;;;12.10;99.90;;;;;;5020146;28;20214;-68
2022/10/05 07:32:55;;;;;;;6.33;3.50;;;12.20;99.90;;;;;;5021381;28;20194;-70
2022/10/05 07:38:26;;;;;;;6.03;3.30;;;12.50;99.90;;;;;;5019715;28;20699;-70
2022/10/05 07:41:21;;;;;;;4.07;3.00;;;12.60;99.90;;;;;;5023839;28;20596;-68
2022/10/05 07:44:02;;;;;;;6.50;3.33;;;12.70;99.90;;;;;;5015679;28;20287;-71
2022/10/05 07:46:45;;;;;;;4.03;3.33;;;12.80;99.90;;;;;;5022216;28;20280;-68
2022/10/05 07:49:56;;;;;;;5.47;3.60;;;12.90;99.90;;;;;;5021178;28;21013;-69
2022/10/05 07:52:33;;;;;;;4.67;3.27;;;13.00;99.90;;;;;;5029403;28;20238;-69
2022/10/05 07:55:18;;;;;;;4.47;3.40;;;13.00;99.90;;;;;;5021836;28;20375;-69
2022/10/05 07:57:54;;;;;;;4.53;3.10;;;13.10;99.90;;;;;;5026702;28;20186;-69
2022/10/05 08:00:23;;;;;;;3.57;3.23;;;13.10;99.90;;;;;;5025173;28;20465;-68
2022/10/05 08:03:13;;;;;;;5.37;3.37;;;13.20;99.90;;;;;;5030478;28;20207;-69
2022/10/05 08:05:42;;;;;;;6.10;3.10;;;13.30;99.90;;;;;;5027752;28;20196;-68
2022/10/05 08:08:30;;;;;;;8.30;3.90;;;13.40;99.90;;;;;;5026924;28;20196;-68
2022/10/05 08:11:10;;;;;;;5.30;3.53;;;13.50;99.90;;;;;;5027177;28;20217;-68
2022/10/05 08:13:51;;;;;;;5.10;3.70;;;13.60;99.90;;;;;;5033557;28;20206;-68
2022/10/05 08:16:18;;;;;;;3.30;3.00;;;13.80;99.90;;;;;;5027541;28;20247;-69
2022/10/05 08:19:17;;;;;;;2.97;2.77;;;13.90;99.90;;;;;;5036976;28;20290;-69
2022/10/05 08:21:50;;;;;;;3.83;2.80;;;14.00;99.90;;;;;;5029459;28;20176;-68
2022/10/05 08:24:32;;;;;;;5.30;2.40;;;14.10;99.90;;;;;;5025811;28;20560;-68
2022/10/05 08:27:25;;;;;;;4.40;4.00;;;14.10;99.90;;;;;;5027001;28;20534;-68
2022/10/05 08:29:58;;;;;;;5.93;2.27;;;14.10;99.90;;;;;;5031710;28;20227;-68
2022/10/05 08:32:27;;;;;;;7.57;3.23;;;14.20;99.90;;;;;;5025744;28;20209;-68
2022/10/05 08:35:02;;;;;;;3.27;2.80;;;14.30;99.90;;;;;;5031043;28;20277;-69
2022/10/05 08:37:32;;;;;;;9.13;3.27;;;14.40;99.90;;;;;;5023251;28;20189;-69
2022/10/05 08:40:13;;;;;;;5.63;3.03;;;14.40;99.90;;;;;;5030062;28;20207;-68
2022/10/05 08:43:11;;;;;;;2.87;2.53;;;14.50;99.90;;;;;;5027754;28;20756;-69
2022/10/05 08:46:08;;;;;;;2.80;2.60;;;14.50;99.90;;;;;;5022162;28;20214;-68
2022/10/05 08:49:08;;;;;;;3.20;2.90;;;14.50;99.90;;;;;;5023929;28;20298;-68
2022/10/05 08:51:52;;;;;;;3.77;2.90;;;14.60;99.90;;;;;;5020223;28;20253;-69
2022/10/05 08:54:49;;;;;;;6.50;3.07;;;14.70;99.90;;;;;;5021692;28;20200;-69
2022/10/05 08:58:03;;;;;;;3.60;3.30;;;14.80;99.90;;;;;;5020006;28;20195;-69
2022/10/05 09:01:07;;;;;;;4.47;2.63;;;15.00;99.90;;;;;;4992265;28;20674;-68
2022/10/05 09:03:45;;;;;;;2.83;2.63;;;15.10;99.90;;;;;;5025313;28;20636;-67
2022/10/05 09:06:41;;;;;;;2.93;2.47;;;15.40;99.90;;;;;;5022851;28;20649;-65
2022/10/05 09:09:19;;;;;;;6.83;3.10;;;15.50;99.90;;;;;;5016732;28;20219;-65
2022/10/05 09:12:14;;;;;;;3.50;3.20;;;15.50;99.90;;;;;;5023133;28;20290;-65
2022/10/05 09:14:53;;;;;;;2.87;2.67;;;15.50;99.90;;;;;;5020042;28;20203;-65
2022/10/05 09:17:45;;;;;;;4.20;2.63;;;15.60;99.90;;;;;;5026599;28;20206;-66
2022/10/05 09:20:29;;;;;;;4.90;2.57;;;15.60;99.90;;;;;;5024533;28;20196;-67
2022/10/05 09:23:32;;;;;;;4.90;2.90;;;15.70;99.90;;;;;;5023654;28;20196;-65
2022/10/05 09:26:06;;;;;;;4.63;2.87;;;15.80;99.90;;;;;;5024616;28;20241;-66
2022/10/05 09:29:09;;;;;;;7.20;2.80;;;15.90;99.90;;;;;;5018610;28;20611;-64
2022/10/05 09:31:50;;;;;;;3.83;2.83;;;15.90;99.90;;;;;;5025900;28;20214;-64
2022/10/05 09:34:55;;;;;;;6.20;2.83;;;15.90;99.90;;;;;;5023557;28;20253;-64
2022/10/05 09:37:31;;;;;;;4.67;2.57;;;16.00;99.90;;;;;;5023328;28;20271;-67
2022/10/05 09:40:18;;;;;;;4.00;2.90;;;15.90;99.90;;;;;;5023833;28;20207;-66
2022/10/05 09:43:19;;;;;;;5.33;3.10;;;16.00;99.90;;;;;;5022820;28;20214;-66
2022/10/05 09:46:08;;;;;;;3.07;2.63;;;16.20;99.90;;;;;;5021470;28;20196;-66
2022/10/05 09:49:01;;;;;;;3.23;2.77;;;16.30;99.90;;;;;;5022315;28;20494;-65
2022/10/05 09:51:53;;;;;;;5.03;3.17;;;16.40;99.90;;;;;;5023471;28;20216;-65
2022/10/05 09:54:49;;;;;;;4.57;3.20;;;16.50;99.90;;;;;;5022810;28;20693;-67
2022/10/05 09:57:35;;;;;;;3.33;2.33;;;16.50;99.90;;;;;;5024909;28;20180;-66
2022/10/05 10:00:14;;;;;;;5.27;2.90;;;16.50;99.90;;;;;;5021659;28;20192;-66
2022/10/05 10:03:01;;;;;;;5.63;2.63;;;16.40;99.90;;;;;;5025796;28;20266;-78
2022/10/05 10:06:09;;;;;;;7.13;3.10;;;16.40;99.90;;;;;;5022859;28;20203;-72
2022/10/05 10:09:12;;;;;;;6.80;3.57;;;16.50;99.90;;;;;;5012957;28;20888;-69
2022/10/05 10:12:07;;;;;;;3.67;2.90;;;16.50;99.90;;;;;;5020499;28;20207;-67
2022/10/05 10:15:08;;;;;;;4.67;3.20;;;16.60;99.90;;;;;;5020449;28;20200;-68
2022/10/05 10:18:01;;;;;;;3.27;2.97;;;16.60;99.90;;;;;;5024728;28;20800;-67
2022/10/05 10:20:53;;;;;;;2.97;2.77;;;16.60;99.90;;;;;;5024411;28;20199;-68
2022/10/05 10:23:50;;;;;;;6.03;3.77;;;16.70;99.90;;;;;;5024868;28;20191;-68
2022/10/05 10:26:35;;;;;;;9.47;5.33;;;16.80;99.90;;;;;;5020907;28;20186;-68
2022/10/05 10:29:20;;;;;;;33.90;14.87;;;16.90;99.90;;;;;;5017725;28;20211;-67
2022/10/05 10:31:54;;;;;;;22.47;11.87;;;16.90;99.90;;;;;;5017643;28;20231;-68
2022/10/05 10:34:46;;;;;;;17.53;12.17;;;17.00;99.90;;;;;;5017044;28;20264;-69
2022/10/05 10:37:26;;;;;;;13.50;8.10;;;17.10;99.90;;;;;;5021739;28;20190;-69
2022/10/05 10:40:22;;;;;;;10.23;7.03;;;17.30;99.90;;;;;;5017027;28;20241;-68
2022/10/05 10:43:26;;;;;;;6.73;4.83;;;17.40;99.90;;;;;;5024247;28;20199;-69
2022/10/05 10:46:22;;;;;;;7.00;4.70;;;17.50;99.90;;;;;;4987690;28;20218;-70
2022/10/05 10:49:14;;;;;;;3.57;3.23;;;17.60;99.90;;;;;;5021059;28;20191;-70
2022/10/05 10:51:50;;;;;;;6.50;3.87;;;17.70;99.90;;;;;;5022463;28;20281;-69
2022/10/05 10:54:57;;;;;;;6.47;3.90;;;17.80;99.90;;;;;;5021813;28;20686;-68
2022/10/05 10:57:48;;;;;;;4.43;3.67;;;18.00;99.90;;;;;;5022637;28;20180;-69
2022/10/05 11:00:43;;;;;;;4.57;3.90;;;18.00;99.90;;;;;;5013140;28;20204;-70
2022/10/05 11:03:29;;;;;;;5.00;3.70;;;18.10;99.90;;;;;;5002328;28;20203;-70
2022/10/05 11:06:21;;;;;;;4.40;3.23;;;18.00;99.90;;;;;;5003295;28;20204;-68
2022/10/05 11:09:36;;;;;;;11.30;6.17;;;18.00;99.90;;;;;;5002971;28;20177;-70
2022/10/05 11:12:30;;;;;;;4.27;3.50;;;18.00;99.90;;;;;;5000179;28;20247;-68
2022/10/05 11:15:32;;;;;;;11.23;7.27;;;18.40;99.90;;;;;;5002071;28;20268;-69
2022/10/05 11:18:37;;;;;;;4.13;3.73;;;18.90;99.90;;;;;;5006412;28;20239;-69
2022/10/05 11:21:29;;;;;;;4.10;3.70;;;19.10;99.90;;;;;;4995057;28;20220;-68
2022/10/05 11:24:25;;;;;;;8.83;5.27;;;19.20;99.90;;;;;;5002757;28;20180;-68
2022/10/05 11:27:14;;;;;;;5.03;4.53;;;19.30;99.90;;;;;;5010688;28;20263;-69
2022/10/05 11:30:00;;;;;;;5.07;3.93;;;19.30;99.90;;;;;;5015345;28;20206;-69
2022/10/05 11:32:51;;;;;;;6.03;3.23;;;19.40;99.90;;;;;;5009509;28;20255;-70
2022/10/05 11:35:48;;;;;;;5.63;4.23;;;19.70;99.90;;;;;;5007224;28;20684;-70
2022/10/05 11:38:52;;;;;;;3.97;3.20;;;20.00;99.90;;;;;;5003676;28;20199;-69
2022/10/05 11:41:51;;;;;;;4.23;2.57;;;20.10;99.90;;;;;;5007571;28;20536;-69
2022/10/05 11:44:58;;;;;;;3.40;3.10;;;19.90;99.90;;;;;;5002830;28;20206;-69
2022/10/05 11:47:29;;;;;;;3.60;2.90;;;19.90;99.90;;;;;;5007732;28;20940;-69
2022/10/05 11:50:10;;;;;;;6.20;3.90;;;19.90;99.90;;;;;;5006835;28;20226;-69
2022/10/05 11:53:02;;;;;;;4.07;2.70;;;19.70;99.90;;;;;;5004638;28;20495;-70
2022/10/05 11:55:56;;;;;;;8.00;3.73;;;19.50;99.90;;;;;;5003291;28;20194;-68
2022/10/05 11:58:52;;;;;;;4.37;3.43;;;19.40;99.90;;;;;;5013784;28;20183;-68
2022/10/05 12:01:27;;;;;;;6.53;3.37;;;19.20;99.90;;;;;;5009778;28;20671;-69
2022/10/05 12:04:16;;;;;;;3.00;2.80;;;19.10;99.90;;;;;;5009626;28;20188;-68
2022/10/05 12:06:52;;;;;;;5.63;4.67;;;19.20;99.90;;;;;;5008406;28;20196;-70
2022/10/05 12:09:31;;;;;;;5.87;2.90;;;19.60;99.90;;;;;;5011681;28;20210;-67
2022/10/05 12:12:14;;;;;;;6.17;3.50;;;20.00;99.90;;;;;;5017253;28;20253;-68
2022/10/05 12:15:04;;;;;;;5.77;3.97;;;20.70;99.90;;;;;;5004848;28;20205;-67
2022/10/05 12:17:40;;;;;;;6.43;3.40;;;21.50;99.90;;;;;;5015667;28;20464;-68
2022/10/05 12:20:19;;;;;;;6.27;3.47;;;21.90;99.90;;;;;;5031063;28;20237;-68
2022/10/05 12:23:04;;;;;;;5.80;2.97;;;22.30;99.90;;;;;;5023805;28;20262;-68
2022/10/05 12:25:41;;;;;;;2.33;2.07;;;22.60;98.80;;;;;;5015202;28;20203;-68
2022/10/05 12:28:12;;;;;;;5.63;3.00;;;23.00;99.00;;;;;;5023342;28;20217;-68
2022/10/05 12:31:01;;;;;;;3.53;3.10;;;23.30;97.20;;;;;;5014097;28;20425;-68
2022/10/05 12:33:36;;;;;;;3.07;2.77;;;23.60;98.00;;;;;;5024710;28;20184;-68
2022/10/05 12:36:34;;;;;;;3.50;2.80;;;23.90;95.70;;;;;;5022170;28;20199;-68
2022/10/05 12:39:21;;;;;;;2.43;2.23;;;24.30;94.80;;;;;;5025228;28;20192;-68
2022/10/05 12:41:52;;;;;;;4.70;2.63;;;24.20;94.40;;;;;;5019054;28;20215;-68
2022/10/05 12:44:43;;;;;;;2.90;2.50;;;24.00;93.90;;;;;;5023663;28;20199;-68
2022/10/05 12:47:41;;;;;;;2.65;2.45;;;24.10;93.90;;;;;;5027324;28;20188;-68
2022/10/05 12:50:27;;;;;;;3.53;2.38;;;24.20;93.40;;;;;;4997732;28;20292;-68
2022/10/05 12:53:12;;;;;;;2.78;2.58;;;24.50;93.90;;;;;;5025312;28;20752;-68
2022/10/05 12:55:59;;;;;;;2.53;2.00;;;25.00;91.60;;;;;;5015432;28;20197;-68
2022/10/05 12:58:48;;;;;;;3.42;2.53;;;25.10;90.50;;;;;;5031532;28;20504;-67
2022/10/05 13:01:41;;;;;;;2.83;2.60;;;24.90;91.00;;;;;;5024283;28;20207;-68
2022/10/05 13:04:16;;;;;;;2.72;2.42;;;25.30;90.90;;;;;;5019710;28;20184;-68
2022/10/05 13:06:54;;;;;;;2.55;2.35;;;25.50;89.10;;;;;;5021940;28;20189;-68
2022/10/05 13:09:31;;;;;;;2.95;1.92;;;25.40;88.80;;;;;;5012913;28;20547;-68
2022/10/05 13:12:06;;;;;;;2.90;2.70;;;25.50;87.70;;;;;;5026033;28;20987;-68
2022/10/05 13:15:03;;;;;;;2.40;2.20;;;25.50;86.50;;;;;;5017630;28;20613;-68
2022/10/05 13:17:52;;;;;;;2.50;2.33;;;25.80;89.30;;;;;;5020477;28;20715;-69
2022/10/05 13:20:36;;;;;;;3.13;2.50;;;26.50;83.70;;;;;;5017889;28;20687;-68
2022/10/05 13:23:12;;;;;;;4.10;2.05;;;26.70;81.30;;;;;;5024941;28;20201;-69
2022/10/05 13:25:51;;;;;;;2.47;2.28;;;27.10;81.60;;;;;;5022162;28;20197;-68
2022/10/05 13:28:43;;;;;;;2.30;2.20;;;27.00;80.60;;;;;;5019693;28;20190;-68
2022/10/05 13:31:18;;;;;;;2.92;1.75;;;27.50;78.10;;;;;;5012665;28;20219;-69
2022/10/05 13:33:56;;;;;;;3.28;2.60;;;27.20;77.00;;;;;;5023437;28;20202;-68
2022/10/05 13:36:38;;;;;;;2.70;2.50;;;27.10;76.90;;;;;;5022611;28;20195;-69
2022/10/05 13:39:26;;;;;;;2.33;2.10;;;27.10;76.60;;;;;;5025864;28;20191;-68
2022/10/05 13:42:08;;;;;;;2.92;2.33;;;27.00;75.30;;;;;;5026307;28;20191;-68
2022/10/05 13:44:52;;;;;;;2.95;1.95;;;26.90;75.60;;;;;;5024934;28;20199;-68
2022/10/05 13:47:30;;;;;;;2.38;2.17;;;26.60;75.60;;;;;;5025402;28;20210;-68
2022/10/05 13:50:12;;;;;;;4.10;2.00;;;26.60;76.80;;;;;;5016893;28;20549;-69
2022/10/05 13:52:50;;;;;;;3.35;2.50;;;26.80;74.20;;;;;;5029882;28;20245;-68
2022/10/05 13:55:44;;;;;;;4.30;2.53;;;27.10;73.40;;;;;;5021032;28;20713;-68
2022/10/05 13:58:40;;;;;;;1.77;1.67;;;27.30;73.30;;;;;;5021755;28;20237;-68
2022/10/05 14:01:13;;;;;;;3.53;2.47;;;27.70;72.30;;;;;;5019824;28;20211;-68
2022/10/05 14:03:38;;;;;;;2.70;1.92;;;28.30;70.80;;;;;;5025944;28;20203;-68
2022/10/05 14:06:12;;;;;;;2.22;2.03;;;28.00;70.20;;;;;;5028641;28;20551;-68
2022/10/05 14:09:09;;;;;;;2.80;1.98;;;28.60;68.80;;;;;;5017688;28;20211;-69
2022/10/05 14:11:35;;;;;;;2.30;2.10;;;28.70;68.70;;;;;;5021927;28;20641;-69
2022/10/05 14:14:36;;;;;;;2.45;2.25;;;28.50;66.90;;;;;;5030041;28;21002;-69